Time;durP1;ratioP1;P1;durP2;ratioP2;P2;SDS_P1;SDS_P2;PMS_P1;PMS_P2;Temp;Humidity;BMP_temperature;BMP_pressure;BME280_temperature;BME280_humidity;BME280_pressure;Samples;Min_cycle;Max_cycle;Signal;HPM_P1;HPM_P2
2023/11/17 00:01:49;;;;;;;7.70;4.50;;;;;;;-144.73;100.00;86722.48;110315;1277;22182;-55
2023/11/17 00:04:35;;;;;;;7.20;4.40;;;;;;;-144.73;100.00;86724.07;110298;1277;22982;-58
2023/11/17 00:07:22;;;;;;;8.30;4.90;;;;;;;-144.73;100.00;86720.50;110306;1277;22133;-58
2023/11/17 00:10:09;;;;;;;7.40;3.90;;;;;;;-144.73;100.00;86729.60;110312;1277;22176;-59
2023/11/17 00:12:56;;;;;;;5.70;3.60;;;;;;;-144.73;100.00;86716.55;110661;1258;22858;-55
2023/11/17 00:15:42;;;;;;;7.80;4.40;;;;;;;-144.73;100.00;86722.89;110336;1278;22246;-58
2023/11/17 00:18:29;;;;;;;5.30;3.50;;;;;;;-144.73;100.00;86713.79;110309;1278;22136;-58
2023/11/17 00:21:15;;;;;;;5.60;3.80;;;;;;;-144.73;100.00;86725.65;110309;1278;22140;-59
2023/11/17 00:24:03;;;;;;;7.00;4.20;;;;;;;-144.73;100.00;86720.11;110312;1278;22138;-57
2023/11/17 00:26:49;;;;;;;6.80;3.90;;;;;;;-144.73;100.00;86719.71;110285;1278;22169;-56
2023/11/17 00:29:37;;;;;;;17.60;5.00;;;;;;;-144.73;100.00;86719.33;110285;1277;22143;-57
2023/11/17 00:32:23;;;;;;;13.20;5.80;;;;;;;-144.73;100.00;86733.16;110301;1278;22091;-58
2023/11/17 00:35:09;;;;;;;11.10;5.50;;;;;;;-144.73;100.00;86730.40;110320;1277;22128;-57
2023/11/17 00:37:55;;;;;;;6.60;4.20;;;;;;;-144.73;100.00;86739.89;110330;1277;22128;-56
2023/11/17 00:40:41;;;;;;;7.00;4.30;;;;;;;-144.73;100.00;86732.77;110701;1256;22126;-57
2023/11/17 00:43:27;;;;;;;8.40;3.60;;;;;;;-144.73;100.00;86730.79;110312;1277;22383;-56
2023/11/17 00:46:13;;;;;;;6.80;3.40;;;;;;;-144.73;100.00;86738.31;110276;1278;22130;-56
2023/11/17 00:49:03;;;;;;;6.00;3.70;;;;;;;-144.73;100.00;86742.66;110383;1277;22135;-55
2023/11/17 00:51:49;;;;;;;7.00;4.40;;;;;;;-144.73;100.00;86734.35;110312;1277;22208;-58
2023/11/17 00:54:42;;;;;;;7.00;3.80;;;;;;;-144.73;100.00;86733.95;110337;1277;22089;-57
2023/11/17 00:57:30;;;;;;;7.00;3.60;;;;;;;-144.73;100.00;86739.89;110310;1278;22113;-57
2023/11/17 01:00:16;;;;;;;5.80;3.70;;;;;;;-144.73;100.00;86741.47;110253;1278;22139;-57
2023/11/17 01:03:02;;;;;;;7.10;4.00;;;;;;;-144.73;100.00;86747.40;110348;1278;22907;-58
2023/11/17 01:05:49;;;;;;;6.70;4.10;;;;;;;-144.73;100.00;86736.33;110342;1278;22787;-55
2023/11/17 01:08:35;;;;;;;6.10;3.80;;;;;;;-144.73;100.00;86747.80;110336;1277;22149;-56
2023/11/17 01:11:21;;;;;;;7.10;4.40;;;;;;;-144.73;100.00;86747.40;110338;1277;22131;-58
2023/11/17 01:14:08;;;;;;;8.20;4.10;;;;;;;-144.73;100.00;86754.13;110311;1277;22090;-58
2023/11/17 01:16:54;;;;;;;6.90;4.20;;;;;;;-144.73;100.00;86744.64;110319;1278;22187;-58
2023/11/17 01:19:45;;;;;;;6.70;4.20;;;;;;;-144.73;100.00;86754.52;110307;1277;22130;-55
2023/11/17 01:22:31;;;;;;;5.50;3.80;;;;;;;-144.73;100.00;86761.25;110294;1278;22861;-57
2023/11/17 01:25:17;;;;;;;8.10;4.20;;;;;;;-144.73;100.00;86758.08;110329;1278;22165;-56
2023/11/17 01:28:04;;;;;;;8.80;4.30;;;;;;;-144.73;100.00;86752.15;110331;1277;22107;-56
2023/11/17 01:30:51;;;;;;;7.40;4.00;;;;;;;-144.73;100.00;86760.85;110365;1278;22112;-58
2023/11/17 01:33:37;;;;;;;7.90;4.30;;;;;;;-144.73;100.00;86767.17;110306;1277;22127;-58
2023/11/17 01:36:23;;;;;;;6.90;4.50;;;;;;;-144.73;100.00;86760.84;110388;1277;22165;-56
2023/11/17 01:39:09;;;;;;;8.30;4.70;;;;;;;-144.73;100.00;86759.27;110380;1277;22959;-54
2023/11/17 01:41:55;;;;;;;9.90;5.00;;;;;;;-144.73;100.00;86769.55;110378;1277;22151;-55
2023/11/17 01:44:43;;;;;;;6.80;4.70;;;;;;;-144.73;100.00;86767.96;110386;1277;22954;-55
2023/11/17 01:47:30;;;;;;;7.80;4.50;;;;;;;-144.73;100.00;86765.59;110384;1278;22139;-57
2023/11/17 01:50:16;;;;;;;7.00;5.20;;;;;;;-144.73;100.00;86770.73;110349;1278;22137;-55
2023/11/17 01:53:03;;;;;;;6.70;4.90;;;;;;;-144.73;100.00;86781.02;110319;1278;22080;-58
2023/11/17 01:55:49;;;;;;;7.70;5.10;;;;;;;-144.73;100.00;86768.77;110377;1277;23026;-59
2023/11/17 01:58:35;;;;;;;9.00;5.10;;;;;;;-144.73;100.00;86774.69;110379;1277;22208;-55
2023/11/17 02:01:25;;;;;;;9.30;6.30;;;;;;;-144.73;100.00;86774.30;110171;1277;22156;-55
2023/11/17 02:04:12;;;;;;;9.30;5.00;;;;;;;-144.73;100.00;86795.66;110416;1262;22122;-59
2023/11/17 02:07:05;;;;;;;7.20;4.60;;;;;;;-144.73;100.00;86772.32;110378;1277;22150;-54
2023/11/17 02:10:06;;;;;;;9.40;5.80;;;;;;;-144.73;100.00;86756.10;110363;1277;22152;-57
2023/11/17 02:13:33;;;;;;;8.40;5.30;;;;;;;-144.73;100.00;86765.99;110462;1256;22146;-57
2023/11/17 02:16:24;;;;;;;8.10;5.50;;;;;;;-144.73;100.00;86774.69;110388;1277;22147;-57
2023/11/17 02:19:28;;;;;;;;;;;;;;;-144.73;100.00;86781.80;110409;1277;22278;-54
2023/11/17 02:22:19;;;;;;;8.00;4.90;;;;;;;-144.73;100.00;86794.08;110285;1277;22864;-57
2023/11/17 02:25:16;;;;;;;8.00;5.20;;;;;;;-144.73;100.00;86788.54;110423;1277;22137;-55
2023/11/17 02:28:27;;;;;;;8.60;5.50;;;;;;;-144.73;100.00;86783.00;110287;1277;22797;-56
2023/11/17 02:31:18;;;;;;;10.40;5.10;;;;;;;-144.73;100.00;86777.46;110412;1265;22142;-55
2023/11/17 02:34:07;;;;;;;18.60;9.10;;;;;;;-144.73;100.00;86785.77;110357;1277;22141;-54
2023/11/17 02:36:54;;;;;;;12.40;6.60;;;;;;;-144.73;100.00;86796.45;110373;1277;22149;-56
2023/11/17 02:39:45;;;;;;;10.90;5.00;;;;;;;-144.73;100.00;86771.52;110301;1278;22257;-56
2023/11/17 02:42:37;;;;;;;9.90;5.20;;;;;;;-144.73;100.00;86768.36;110341;1277;22183;-56
2023/11/17 02:45:25;;;;;;;7.30;4.90;;;;;;;-144.73;100.00;86784.97;110329;1277;22905;-54
2023/11/17 02:48:12;;;;;;;7.80;4.90;;;;;;;-144.73;100.00;86773.11;110350;1277;22122;-58
2023/11/17 02:51:19;;;;;;;8.00;5.10;;;;;;;-144.73;100.00;86801.19;110326;1277;22108;-56
2023/11/17 02:54:08;;;;;;;7.60;4.50;;;;;;;-144.73;100.00;86776.27;110333;1278;22189;-57
2023/11/17 02:56:55;;;;;;;9.20;4.50;;;;;;;-144.73;100.00;86790.91;110359;1277;22174;-55
2023/11/17 02:59:43;;;;;;;6.80;4.30;;;;;;;-144.73;100.00;86783.79;110696;1259;22164;-57
2023/11/17 03:02:30;;;;;;;10.00;4.70;;;;;;;-144.73;100.00;86771.13;110340;1277;22133;-57
2023/11/17 03:05:16;;;;;;;6.70;4.50;;;;;;;-144.73;100.00;86787.75;110208;1278;22139;-57
2023/11/17 03:08:03;;;;;;;8.00;4.80;;;;;;;-144.73;100.00;86780.23;110353;1277;22133;-57
2023/11/17 03:10:49;;;;;;;7.10;5.00;;;;;;;-144.73;100.00;86800.80;110202;1278;22117;-55
2023/11/17 03:13:35;;;;;;;10.00;4.90;;;;;;;-144.73;100.00;86792.89;110329;1278;22187;-56
2023/11/17 03:16:24;;;;;;;8.70;5.40;;;;;;;-144.73;100.00;86777.86;110365;1278;22112;-58
2023/11/17 03:19:10;;;;;;;11.90;7.10;;;;;;;-144.73;100.00;86786.95;110345;1278;22773;-56
2023/11/17 03:21:57;;;;;;;8.20;5.10;;;;;;;-144.73;100.00;86787.35;110368;1278;22828;-55
2023/11/17 03:24:43;;;;;;;14.20;6.90;;;;;;;-144.73;100.00;86776.27;110353;1277;22165;-56
2023/11/17 03:27:31;;;;;;;8.00;5.20;;;;;;;-144.73;100.00;86794.08;110328;1277;22794;-55
2023/11/17 03:30:18;;;;;;;8.20;5.00;;;;;;;-144.73;100.00;86794.46;110362;1278;22154;-55
2023/11/17 03:33:04;;;;;;;9.10;5.80;;;;;;;-144.73;100.00;86784.58;110284;1276;22898;-54
2023/11/17 03:35:55;;;;;;;10.10;5.40;;;;;;;-144.73;100.00;86808.31;110372;1276;22226;-56
2023/11/17 03:38:42;;;;;;;7.10;4.60;;;;;;;-144.73;100.00;86805.55;110343;1276;22125;-57
2023/11/17 03:41:28;;;;;;;7.40;5.00;;;;;;;-144.73;100.00;86815.83;110362;1276;22827;-56
2023/11/17 03:44:14;;;;;;;7.60;4.60;;;;;;;-144.73;100.00;86801.59;110399;1276;22132;-56
2023/11/17 03:47:00;;;;;;;8.60;4.50;;;;;;;-144.73;100.00;86803.17;110336;1276;22214;-56
2023/11/17 03:49:47;;;;;;;7.60;5.00;;;;;;;-144.73;100.00;86798.41;110342;1276;22142;-57
2023/11/17 03:52:35;;;;;;;7.80;4.80;;;;;;;-144.73;100.00;86798.02;110330;1276;22128;-57
2023/11/17 03:55:21;;;;;;;10.00;4.80;;;;;;;-144.73;100.00;86794.47;110360;1276;22141;-57
2023/11/17 03:58:07;;;;;;;8.60;5.90;;;;;;;-144.73;100.00;86801.59;110792;1257;22135;-54
2023/11/17 04:00:54;;;;;;;7.50;4.70;;;;;;;-144.73;100.00;86788.14;110331;1276;22145;-56
2023/11/17 04:03:40;;;;;;;8.60;4.60;;;;;;;-144.73;100.00;86801.98;110354;1276;22150;-56
2023/11/17 04:06:28;;;;;;;10.50;4.70;;;;;;;-144.73;100.00;86798.82;110232;1276;22136;-55
2023/11/17 04:09:15;;;;;;;7.60;5.30;;;;;;;-144.73;100.00;86805.95;110349;1276;22141;-55
2023/11/17 04:12:02;;;;;;;7.70;5.40;;;;;;;-144.73;100.00;86786.56;110349;1276;22128;-56
2023/11/17 04:14:49;;;;;;;8.20;5.40;;;;;;;-144.73;100.00;86789.73;110350;1276;22146;-58
2023/11/17 04:17:35;;;;;;;8.30;5.60;;;;;;;-144.73;100.00;86771.53;110366;1276;22140;-55
2023/11/17 04:20:23;;;;;;;7.30;5.30;;;;;;;-144.73;100.00;86773.51;110235;1276;22132;-58
2023/11/17 04:23:10;;;;;;;8.00;4.90;;;;;;;-144.73;100.00;86771.92;110347;1276;22159;-56
2023/11/17 04:25:57;;;;;;;7.60;5.10;;;;;;;-144.73;100.00;86768.36;110746;1257;22329;-57
2023/11/17 04:28:44;;;;;;;13.70;5.40;;;;;;;-144.73;100.00;86781.02;110380;1276;22137;-55
2023/11/17 04:31:30;;;;;;;8.80;5.20;;;;;;;-144.73;100.00;86807.91;110343;1276;22143;-57
2023/11/17 04:34:16;;;;;;;7.50;5.30;;;;;;;-144.73;100.00;86785.77;110519;1270;22143;-57
2023/11/17 04:37:04;;;;;;;7.60;5.20;;;;;;;-144.73;100.00;86775.48;110364;1276;22162;-56
2023/11/17 04:39:51;;;;;;;9.40;6.70;;;;;;;-144.73;100.00;86785.77;110324;1276;22158;-57
2023/11/17 04:42:40;;;;;;;8.70;6.40;;;;;;;-144.73;100.00;86775.88;110323;1276;22194;-56
2023/11/17 04:45:26;;;;;;;10.30;7.20;;;;;;;-144.73;100.00;86776.27;110373;1276;22142;-55
2023/11/17 04:48:13;;;;;;;8.70;6.80;;;;;;;-144.73;100.00;86783.79;110354;1276;22888;-59
2023/11/17 04:51:00;;;;;;;8.90;5.90;;;;;;;-144.73;100.00;86785.38;110319;1276;22128;-57
2023/11/17 04:53:46;;;;;;;10.20;6.60;;;;;;;-144.73;100.00;86791.30;110340;1276;22120;-56
2023/11/17 04:56:32;;;;;;;10.30;6.60;;;;;;;-144.73;100.00;86802.77;110339;1276;22174;-56
2023/11/17 04:59:18;;;;;;;8.40;6.40;;;;;;;-144.73;100.00;86790.91;110682;1256;22827;-54
2023/11/17 05:02:05;;;;;;;9.30;6.40;;;;;;;-144.73;100.00;86784.58;110345;1276;22134;-58
2023/11/17 05:04:51;;;;;;;10.60;6.50;;;;;;;-144.73;100.00;86775.88;110350;1276;22119;-56
2023/11/17 05:07:44;;;;;;;7.50;5.70;;;;;;;-144.73;100.00;86796.05;110333;1276;22131;-55
2023/11/17 05:10:30;;;;;;;8.40;6.00;;;;;;;-144.73;100.00;86787.74;110317;1276;22117;-58
2023/11/17 05:13:16;;;;;;;10.40;6.30;;;;;;;-144.73;100.00;86771.14;110336;1276;22094;-56
2023/11/17 05:16:03;;;;;;;14.60;7.40;;;;;;;-144.73;100.00;86782.99;110371;1276;22796;-55
2023/11/17 05:18:50;;;;;;;13.10;8.10;;;;;;;-144.73;100.00;86789.32;110383;1276;22135;-57
2023/11/17 05:21:37;;;;;;;13.20;7.90;;;;;;;-144.73;100.00;86778.25;110349;1276;22132;-57
2023/11/17 05:24:23;;;;;;;14.70;8.40;;;;;;;-144.73;100.00;86788.92;110340;1276;22810;-56
2023/11/17 05:27:10;;;;;;;11.30;6.90;;;;;;;-144.73;100.00;86794.07;110329;1276;22125;-56
2023/11/17 05:29:56;;;;;;;11.10;6.80;;;;;;;-144.73;100.00;86784.19;110353;1276;22137;-54
2023/11/17 05:32:46;;;;;;;8.90;5.80;;;;;;;-144.73;100.00;86794.47;110348;1276;22141;-58
2023/11/17 05:35:32;;;;;;;12.10;8.40;;;;;;;-144.73;100.00;86782.20;110338;1275;22427;-59
2023/11/17 05:38:18;;;;;;;13.40;9.30;;;;;;;-144.73;100.00;86786.95;110369;1276;22182;-57
2023/11/17 05:41:05;;;;;;;14.10;9.10;;;;;;;-144.73;100.00;86782.21;110366;1276;22827;-58
2023/11/17 05:43:53;;;;;;;19.90;11.30;;;;;;;-144.73;100.00;86790.11;110363;1276;22098;-56
2023/11/17 05:46:39;;;;;;;11.60;7.80;;;;;;;-144.73;100.00;86783.39;110355;1276;22191;-57
2023/11/17 05:49:26;;;;;;;11.20;7.00;;;;;;;-144.73;100.00;86774.30;110221;1276;22132;-56
2023/11/17 05:52:15;;;;;;;10.20;7.50;;;;;;;-144.73;100.00;86754.13;110329;1276;22138;-60
2023/11/17 05:55:03;;;;;;;12.50;7.50;;;;;;;-144.73;100.00;86780.23;110333;1276;22124;-59
2023/11/17 05:57:50;;;;;;;11.40;7.10;;;;;;;-144.73;100.00;86769.55;110341;1276;22116;-56
2023/11/17 06:00:37;;;;;;;13.00;7.50;;;;;;;-144.73;100.00;86765.20;110303;1276;22132;-55
2023/11/17 06:03:23;;;;;;;11.20;6.80;;;;;;;-144.73;100.00;86763.61;110326;1276;22818;-59
2023/11/17 06:06:09;;;;;;;10.40;6.90;;;;;;;-144.73;100.00;86774.70;110343;1276;22912;-57
2023/11/17 06:08:56;;;;;;;12.10;7.20;;;;;;;-144.73;100.00;86768.36;110340;1276;22886;-57
2023/11/17 06:11:42;;;;;;;12.20;6.60;;;;;;;-144.73;100.00;86756.89;110350;1276;22921;-56
2023/11/17 06:14:30;;;;;;;12.00;7.00;;;;;;;-144.73;100.00;86748.19;110333;1276;22122;-55
2023/11/17 06:17:16;;;;;;;10.60;6.40;;;;;;;-144.73;100.00;86767.58;110694;1256;22889;-58
2023/11/17 06:20:03;;;;;;;10.90;6.80;;;;;;;-144.73;100.00;86777.06;110305;1276;22141;-59
2023/11/17 06:22:50;;;;;;;12.50;7.80;;;;;;;-144.73;100.00;86771.14;110689;1259;22166;-56
2023/11/17 06:27:21;;;;;;;8.50;6.20;;;;;;;-144.73;100.00;88122.16;103883;1302;544900;-56
2023/11/17 06:30:08;;;;;;;11.50;6.70;;;;;;;-144.73;100.00;86751.36;106180;1285;24235;-55
2023/11/17 06:32:55;;;;;;;12.30;7.90;;;;;;;-144.73;100.00;86747.80;106304;1285;22552;-55
2023/11/17 06:35:42;;;;;;;11.50;7.30;;;;;;;-144.73;100.00;86743.45;106185;1285;22583;-55
2023/11/17 06:38:29;;;;;;;10.70;6.90;;;;;;;-144.73;100.00;86742.27;106198;1284;22558;-57
2023/11/17 06:41:16;;;;;;;9.30;6.60;;;;;;;-144.73;100.00;86756.50;106653;1275;137812;-57
2023/11/17 06:44:02;;;;;;;10.80;7.50;;;;;;;-144.73;100.00;86723.67;106816;1276;22526;-58
2023/11/17 06:46:50;;;;;;;11.20;7.60;;;;;;;-144.73;100.00;86729.20;106789;1276;22604;-57
2023/11/17 06:49:37;;;;;;;10.90;6.30;;;;;;;-144.73;100.00;86726.44;106761;1275;24844;-57
2023/11/17 06:52:24;;;;;;;10.80;6.70;;;;;;;-144.73;100.00;86729.99;106769;1276;25398;-55
2023/11/17 06:55:11;;;;;;;9.40;6.70;;;;;;;-144.73;100.00;86744.63;106753;1275;22519;-57
2023/11/17 06:57:57;;;;;;;9.80;6.70;;;;;;;-144.73;100.00;86732.38;106762;1276;22546;-56
2023/11/17 07:00:44;;;;;;;12.10;7.70;;;;;;;-144.73;100.00;86715.37;106784;1260;22510;-58
2023/11/17 07:03:31;;;;;;;12.30;7.40;;;;;;;-144.73;100.00;86728.02;106734;1276;23905;-55
2023/11/17 09:46:20;;;;;;;18.70;10.50;;;;;;;-144.73;94.19;87859.03;104724;1282;558408;-64
2023/11/17 09:49:07;;;;;;;20.40;11.10;;;;;;;-144.73;94.19;86532.25;106266;1273;159775;-64
2023/11/17 09:51:58;;;;;;;16.40;10.50;;;;;;;-144.73;93.84;86514.85;106880;1273;24269;-64
2023/11/17 09:54:48;;;;;;;13.80;10.30;;;;;;;-144.73;93.41;86510.90;106416;1272;25301;-64
2023/11/17 09:57:36;;;;;;;18.80;10.80;;;;;;;-144.73;93.07;86512.09;107643;1255;22652;-63
2023/11/17 10:00:27;;;;;;;14.00;9.20;;;;;;;-144.73;92.88;86494.29;107459;1261;22587;-63
2023/11/17 10:03:14;;;;;;;20.30;10.20;;;;;;;-144.73;92.49;86503.38;107929;1260;23308;-63
2023/11/17 10:06:04;;;;;;;14.60;9.50;;;;;;;-144.73;92.49;86508.13;108058;1260;22599;-62
2023/11/17 10:08:52;;;;;;;15.50;10.00;;;;;;;-144.73;92.34;86519.98;107249;1257;22693;-62
2023/11/17 10:11:47;;;;;;;15.00;9.50;;;;;;;-144.73;92.21;86498.64;107606;1263;24304;-63
2023/11/17 10:14:36;;;;;;;15.60;10.30;;;;;;;-144.73;92.22;86508.52;107195;1257;25226;-64
2023/11/17 10:17:23;;;;;;;15.70;9.30;;;;;;;-144.73;92.32;86517.23;107186;1259;22526;-63
2023/11/17 10:20:17;;;;;;;14.60;8.80;;;;;;;-144.73;92.34;86505.75;107756;1267;23194;-64
2023/11/17 10:23:05;;;;;;;17.50;10.20;;;;;;;-144.73;92.27;86509.31;107368;1256;22526;-65
2023/11/17 10:25:56;;;;;;;15.60;10.30;;;;;;;-144.73;91.85;86513.27;107083;1260;25363;-64
2023/11/17 10:28:43;;;;;;;19.20;10.50;;;;;;;-144.73;91.60;86521.18;107676;1263;24280;-65
2023/11/17 10:31:38;;;;;;;16.30;9.80;;;;;;;-144.73;92.51;86533.84;107122;1256;24201;-66
2023/11/17 10:34:26;;;;;;;15.80;10.10;;;;;;;-144.73;92.60;86513.27;107477;1260;25268;-65
2023/11/17 10:37:14;;;;;;;15.30;10.00;;;;;;;-144.73;92.24;86504.95;107486;1259;22508;-66
2023/11/17 10:40:01;;;;;;;21.40;11.70;;;;;;;-144.73;92.24;86550.05;107230;1260;25369;-65
2023/11/17 10:43:08;;;;;;;20.60;12.30;;;;;;;-144.73;92.64;86554.40;107254;1261;22524;-65
2023/11/17 10:45:59;;;;;;;18.30;12.00;;;;;;;-144.73;92.86;86543.72;107322;1261;22550;-68
2023/11/17 10:48:52;;;;;;;19.10;12.30;;;;;;;-144.73;93.15;86557.95;107051;1266;22534;-69
2023/11/17 10:51:46;;;;;;;20.50;12.70;;;;;;;-144.73;93.50;86571.40;108131;1266;22526;-66
2023/11/17 10:54:47;;;;;;;19.40;12.00;;;;;;;-144.73;93.76;86569.42;107245;1269;22964;-68
2023/11/17 10:57:35;;;;;;;18.20;11.30;;;;;;;-144.73;93.89;86579.71;107260;1257;24244;-65
2023/11/17 11:00:27;;;;;;;19.00;12.00;;;;;;;-144.73;94.30;86594.34;107202;1265;24653;-64
2023/11/17 11:03:15;;;;;;;;;;;;;;;-144.73;94.72;86596.71;106865;1275;22535;-64
2023/11/17 11:06:03;;;;;;;18.70;12.10;;;;;;;-144.73;94.83;86600.66;106854;1258;22524;-64
2023/11/17 11:08:54;;;;;;;17.50;11.10;;;;;;;-144.73;95.12;86606.20;107187;1266;25363;-68
2023/11/17 11:11:46;;;;;;;21.00;11.70;;;;;;;-144.73;95.42;86617.67;107329;1275;26512;-66
2023/11/17 11:14:32;;;;;;;19.20;11.90;;;;;;;-144.73;95.72;86597.11;106958;1257;22530;-65
2023/11/17 11:17:19;;;;;;;22.30;12.30;;;;;;;-144.73;95.55;86567.84;107304;1266;24350;-66
2023/11/17 11:20:06;;;;;;;21.40;12.20;;;;;;;-144.73;95.18;86548.08;107098;1256;22526;-67
2023/11/17 11:23:10;;;;;;;22.40;16.00;;;;;;;-144.73;95.01;86567.45;106989;1274;22524;-66
2023/11/17 11:26:02;;;;;;;23.10;14.10;;;;;;;-144.73;94.86;86580.10;106969;1270;22547;-67
2023/11/17 11:28:49;;;;;;;24.60;12.70;;;;;;;-144.73;95.03;86574.96;107080;1268;24260;-65
2023/11/17 11:31:37;;;;;;;21.60;11.90;;;;;;;-144.73;95.11;86595.13;107752;1261;22530;-65
2023/11/17 11:34:25;;;;;;;29.30;14.90;;;;;;;-144.73;95.50;86597.50;107122;1275;25291;-65
2023/11/17 11:37:12;;;;;;;25.90;13.20;;;;;;;-144.73;95.76;86604.63;107015;1271;22540;-63
2023/11/17 11:39:59;;;;;;;20.20;12.80;;;;;;;-144.73;95.84;86588.81;106894;1273;25341;-69
2023/11/17 11:42:49;;;;;;;23.40;13.20;;;;;;;-144.73;95.76;86587.62;106761;1275;22567;-64
2023/11/17 11:45:37;;;;;;;20.50;13.20;;;;;;;-144.73;95.68;86586.44;107335;1261;22545;-64
2023/11/17 11:48:25;;;;;;;22.90;13.10;;;;;;;-144.73;95.60;86585.24;106874;1274;22530;-64
2023/11/17 11:51:13;;;;;;;20.30;13.40;;;;;;;-144.73;95.44;86599.48;106943;1260;22607;-64
2023/11/17 11:54:03;;;;;;;25.60;15.90;;;;;;;-144.73;95.69;86611.73;106902;1275;23909;-64
2023/11/17 11:56:49;;;;;;;31.20;15.20;;;;;;;-144.73;95.77;86594.34;108774;1267;22461;-65
2023/11/17 11:59:36;;;;;;;21.40;14.00;;;;;;;-144.73;95.87;86608.19;108013;1274;24180;-64
2023/11/17 12:02:23;;;;;;;26.10;15.90;;;;;;;-144.73;96.04;86607.00;107100;1266;22524;-64
2023/11/17 12:05:09;;;;;;;30.40;17.90;;;;;;;-144.73;96.36;86604.23;107077;1263;22539;-64
2023/11/17 12:07:57;;;;;;;28.00;16.90;;;;;;;-144.73;96.21;86601.86;106840;1275;25249;-63
2023/11/17 12:10:44;;;;;;;29.10;17.60;;;;;;;-144.73;96.16;86603.05;106828;1275;22549;-63
2023/11/17 12:13:47;;;;;;;30.30;17.50;;;;;;;-144.73;96.40;86601.46;106820;1274;22536;-64
2023/11/17 12:16:37;;;;;;;34.40;17.90;;;;;;;-144.73;96.48;86605.41;106783;1267;24689;-64
2023/11/17 12:19:27;;;;;;;33.90;17.70;;;;;;;-144.73;96.64;86608.58;106746;1259;22534;-63
2023/11/17 12:22:13;;;;;;;26.40;15.70;;;;;;;-144.73;96.78;86606.99;106890;1260;25271;-63
2023/11/17 12:25:04;;;;;;;28.00;15.80;;;;;;;-144.73;96.78;86610.16;106929;1260;22544;-65
2023/11/17 12:27:52;;;;;;;25.80;15.90;;;;;;;-144.73;96.81;86623.21;107032;1266;22638;-62
2023/11/17 12:30:40;;;;;;;34.30;15.90;;;;;;;-144.73;96.96;86614.11;107043;1257;25340;-62
2023/11/17 12:33:27;;;;;;;29.30;17.70;;;;;;;-144.73;97.06;86622.02;106998;1274;22988;-66
2023/11/17 12:36:19;;;;;;;27.90;17.20;;;;;;;-144.73;97.33;86621.23;106986;1260;25236;-63
2023/11/17 12:39:08;;;;;;;29.20;17.80;;;;;;;-144.73;97.51;86636.66;106972;1261;22576;-64
2023/11/17 12:41:55;;;;;;;28.00;15.80;;;;;;;-144.73;97.90;86628.36;107001;1274;22657;-67
2023/11/17 12:44:42;;;;;;;28.80;15.40;;;;;;;-144.73;98.31;86636.27;106986;1274;22529;-64
2023/11/17 12:47:29;;;;;;;29.80;16.90;;;;;;;-144.73;98.43;86639.04;107019;1274;22559;-64
2023/11/17 12:50:19;;;;;;;25.80;15.80;;;;;;;-144.73;98.51;86640.22;106971;1257;25277;-63
2023/11/17 12:53:07;;;;;;;24.90;15.50;;;;;;;-144.73;98.56;86634.29;107010;1274;22615;-63
2023/11/17 12:55:57;;;;;;;30.10;16.50;;;;;;;-144.73;98.75;86621.23;107006;1275;25290;-63
2023/11/17 12:58:44;;;;;;;29.80;17.20;;;;;;;-144.73;98.90;86629.55;106996;1274;22529;-63
2023/11/17 13:01:31;;;;;;;27.80;16.60;;;;;;;-144.73;99.07;86624.80;107006;1260;24214;-63
2023/11/17 13:04:20;;;;;;;28.00;16.00;;;;;;;-144.73;99.20;86624.80;106992;1274;23081;-63
2023/11/17 13:07:08;;;;;;;31.50;16.60;;;;;;;-144.73;99.37;86635.87;106972;1275;22587;-63
2023/11/17 13:09:55;;;;;;;30.90;16.20;;;;;;;-144.73;99.45;86611.73;107009;1261;22529;-63
2023/11/17 13:12:45;;;;;;;29.10;16.40;;;;;;;-144.73;99.59;86622.81;107006;1274;24270;-64
2023/11/17 13:15:35;;;;;;;26.80;15.10;;;;;;;-144.73;99.61;86622.82;107009;1274;25281;-63
2023/11/17 13:18:22;;;;;;;25.60;15.10;;;;;;;-144.73;99.52;86609.77;107027;1260;25444;-63
2023/11/17 13:21:12;;;;;;;27.80;13.70;;;;;;;-144.73;99.78;86638.24;107013;1275;22526;-64
2023/11/17 13:23:58;;;;;;;28.20;15.90;;;;;;;-144.73;100.00;86665.14;107014;1260;22527;-63
2023/11/17 13:26:45;;;;;;;29.80;16.50;;;;;;;-144.73;100.00;86686.09;106975;1274;24187;-63
2023/11/17 13:29:37;;;;;;;29.50;16.60;;;;;;;-144.73;100.00;86688.86;107014;1260;24173;-63
2023/11/17 13:32:24;;;;;;;24.30;14.70;;;;;;;-144.73;100.00;86672.26;107008;1260;25338;-63
2023/11/17 13:35:18;;;;;;;28.60;15.00;;;;;;;-144.73;100.00;86648.13;107053;1273;22530;-63
2023/11/17 13:38:06;;;;;;;23.90;14.50;;;;;;;-144.73;100.00;86655.24;106988;1275;24224;-63
